Time;durP1;ratioP1;P1;durP2;ratioP2;P2;SDS_P1;SDS_P2;PMS_P1;PMS_P2;Temp;Humidity;BMP_temperature;BMP_pressure;BME280_temperature;BME280_humidity;BME280_pressure;Samples;Min_cycle;Max_cycle;Signal;HPM_P1;HPM_P2
2022/01/06 00:00:07;;;;;;;26.48;10.20;;;3.70;99.90;;;;;;4229963;28;20135;-74
2022/01/06 00:02:09;;;;;;;27.25;10.73;;;3.60;99.90;;;;;;4215130;28;20071;-78
2022/01/06 00:04:11;;;;;;;23.77;9.93;;;3.70;99.90;;;;;;4212034;28;20060;-77
2022/01/06 00:06:13;;;;;;;25.83;10.27;;;3.60;99.90;;;;;;4224112;28;20079;-77
2022/01/06 00:08:15;;;;;;;31.38;11.68;;;3.70;99.90;;;;;;4226728;28;20075;-76
2022/01/06 00:10:17;;;;;;;27.77;12.27;;;3.60;99.90;;;;;;4223653;28;20518;-75
2022/01/06 00:12:23;;;;;;;30.73;10.57;;;3.60;99.90;;;;;;4226711;28;20075;-77
2022/01/06 00:17:01;;;;;;;28.35;11.00;;;3.60;99.90;;;;;;4226222;28;20746;-77
2022/01/06 00:23:39;;;;;;;25.60;9.52;;;3.50;99.90;;;;;;4235531;28;20067;-75
2022/01/06 00:25:41;;;;;;;27.80;9.85;;;3.50;99.90;;;;;;4230056;28;20052;-78
2022/01/06 00:27:43;;;;;;;23.10;9.25;;;3.50;99.90;;;;;;4216256;28;20136;-76
2022/01/06 00:29:45;;;;;;;27.33;9.80;;;3.50;99.90;;;;;;4215130;28;20128;-76
2022/01/06 00:31:47;;;;;;;30.42;10.55;;;3.40;99.90;;;;;;4214802;28;20075;-77
2022/01/06 00:33:49;;;;;;;31.33;10.65;;;3.40;99.90;;;;;;4211517;28;20504;-75
2022/01/06 00:35:51;;;;;;;21.98;9.70;;;3.40;99.90;;;;;;4212940;28;20052;-75
2022/01/06 00:37:53;;;;;;;26.27;10.70;;;3.30;99.90;;;;;;4198044;28;20135;-77
2022/01/06 00:39:55;;;;;;;31.45;9.75;;;3.20;99.90;;;;;;4198036;28;20056;-76
2022/01/06 00:41:59;;;;;;;23.23;9.43;;;3.20;99.90;;;;;;4198185;28;20071;-76
2022/01/06 00:44:02;;;;;;;26.27;10.68;;;3.10;99.90;;;;;;4200904;28;20051;-75
2022/01/06 00:46:04;;;;;;;27.73;9.50;;;3.00;99.90;;;;;;4218336;28;20051;-77
2022/01/06 00:48:09;;;;;;;25.80;11.10;;;2.90;99.90;;;;;;4212859;28;20412;-76
2022/01/06 00:50:11;;;;;;;24.70;9.98;;;2.80;99.90;;;;;;4212296;28;20070;-76
2022/01/06 00:52:13;;;;;;;29.90;11.57;;;2.70;99.90;;;;;;4214502;28;20126;-74
2022/01/06 00:54:15;;;;;;;31.55;12.85;;;2.70;99.90;;;;;;4215126;28;20115;-78
2022/01/06 00:56:17;;;;;;;33.78;13.20;;;2.60;99.90;;;;;;4212598;28;20142;-77
2022/01/06 00:58:19;;;;;;;33.17;13.63;;;2.60;99.90;;;;;;4199999;28;20091;-77
2022/01/06 01:00:23;;;;;;;35.47;14.32;;;2.60;99.90;;;;;;4198389;28;20044;-75
2022/01/06 01:02:24;;;;;;;37.38;13.68;;;2.50;99.90;;;;;;4197977;28;20076;-77
2022/01/06 01:04:27;;;;;;;37.30;15.20;;;2.40;99.90;;;;;;4231538;27;20063;-76
2022/01/06 01:06:29;;;;;;;34.58;14.80;;;2.30;99.90;;;;;;4197560;28;20052;-76
2022/01/06 01:08:34;;;;;;;39.03;15.10;;;2.30;99.90;;;;;;4198360;28;20594;-76
2022/01/06 01:10:36;;;;;;;;;;;2.20;99.90;;;;;;4209715;28;20052;-75
2022/01/06 01:12:38;;;;;;;39.47;14.18;;;2.20;99.90;;;;;;4207713;28;19920;-76
2022/01/06 01:14:56;;;;;;;36.35;15.48;;;2.20;99.90;;;;;;4228844;28;20697;-76
2022/01/06 01:17:01;;;;;;;35.40;16.63;;;2.20;99.90;;;;;;4206749;28;20087;-77
2022/01/06 01:19:10;;;;;;;46.92;15.90;;;2.20;99.90;;;;;;4214890;28;20056;-75
2022/01/06 01:21:12;;;;;;;33.80;12.30;;;2.20;99.90;;;;;;4232364;28;20051;-76
2022/01/06 01:23:16;;;;;;;32.00;11.98;;;2.30;99.90;;;;;;4213265;28;20048;-74
2022/01/06 01:25:18;;;;;;;32.13;13.18;;;2.40;99.90;;;;;;4213255;28;20079;-79
2022/01/06 01:27:22;;;;;;;32.35;12.95;;;2.40;99.90;;;;;;4213517;28;20078;-76
2022/01/06 01:29:24;;;;;;;38.17;13.60;;;2.40;99.90;;;;;;4209910;28;20075;-75
2022/01/06 01:31:31;;;;;;;30.20;12.43;;;2.40;99.90;;;;;;4214037;28;20081;-76
2022/01/06 01:33:33;;;;;;;33.47;13.35;;;2.40;99.90;;;;;;4197485;28;20080;-76
2022/01/06 01:35:35;;;;;;;33.85;12.73;;;2.40;99.90;;;;;;4237159;27;20118;-76
2022/01/06 01:37:38;;;;;;;30.27;12.10;;;2.50;99.90;;;;;;4213605;28;20587;-78
2022/01/06 01:39:40;;;;;;;36.28;12.77;;;2.40;99.90;;;;;;4213773;28;20080;-77
2022/01/06 01:41:42;;;;;;;36.65;11.68;;;2.50;99.90;;;;;;4211542;28;20128;-77
2022/01/06 01:43:46;;;;;;;29.90;10.23;;;2.50;99.90;;;;;;4213814;28;20079;-75
2022/01/06 01:45:55;;;;;;;28.17;10.00;;;2.60;99.90;;;;;;4213470;28;20076;-76
2022/01/06 01:48:00;;;;;;;24.25;8.75;;;2.60;99.90;;;;;;4213863;28;20144;-75
2022/01/06 01:50:13;;;;;;;21.60;8.82;;;2.70;99.90;;;;;;4211011;28;20040;-75
2022/01/06 01:52:15;;;;;;;17.80;7.28;;;2.70;99.90;;;;;;4203881;28;20048;-76
2022/01/06 01:54:17;;;;;;;21.60;8.43;;;2.80;99.90;;;;;;4214957;28;20492;-76
2022/01/06 01:56:19;;;;;;;26.20;10.43;;;2.90;99.90;;;;;;4203247;28;20076;-76
2022/01/06 01:58:21;;;;;;;25.40;9.35;;;2.90;99.90;;;;;;4196711;28;20055;-75
2022/01/06 02:00:28;;;;;;;35.35;9.73;;;3.00;99.90;;;;;;4197413;28;20475;-76
2022/01/06 02:02:30;;;;;;;23.10;9.60;;;3.10;99.90;;;;;;4204557;28;20589;-77
2022/01/06 02:04:33;;;;;;;22.70;8.90;;;3.10;99.90;;;;;;4229794;28;20051;-76
2022/01/06 02:06:35;;;;;;;22.67;9.10;;;3.10;99.90;;;;;;4223518;28;20055;-75
2022/01/06 02:08:37;;;;;;;16.77;7.30;;;3.10;99.90;;;;;;4213445;28;20079;-76
2022/01/06 02:10:39;;;;;;;19.92;8.10;;;3.10;99.90;;;;;;4213624;28;20497;-77
2022/01/06 02:12:42;;;;;;;26.70;8.05;;;3.10;99.90;;;;;;4213168;28;20075;-75
2022/01/06 02:14:44;;;;;;;22.10;7.93;;;3.20;99.90;;;;;;4215750;28;20512;-76
2022/01/06 02:16:46;;;;;;;23.50;8.40;;;3.20;99.90;;;;;;4225474;28;20090;-77
2022/01/06 02:18:49;;;;;;;25.73;8.68;;;3.20;99.90;;;;;;4225673;28;20177;-76
2022/01/06 02:20:51;;;;;;;22.67;8.23;;;3.20;99.90;;;;;;4218695;28;20086;-76
2022/01/06 02:22:53;;;;;;;23.33;8.70;;;3.30;99.90;;;;;;4230036;28;20427;-75
2022/01/06 02:24:55;;;;;;;24.30;8.48;;;3.20;99.90;;;;;;4229890;28;20083;-75
2022/01/06 02:26:57;;;;;;;25.15;8.45;;;3.30;99.90;;;;;;4228624;28;20077;-80
2022/01/06 02:28:59;;;;;;;26.58;8.73;;;3.30;99.90;;;;;;4223176;28;20512;-78
2022/01/06 02:31:01;;;;;;;20.10;7.35;;;3.30;99.90;;;;;;4230318;28;20515;-77
2022/01/06 02:33:04;;;;;;;18.83;7.70;;;3.30;99.90;;;;;;4225349;28;20068;-75
2022/01/06 02:35:11;;;;;;;22.92;8.45;;;3.30;99.90;;;;;;4226311;28;20075;-76
2022/01/06 02:37:15;;;;;;;19.90;6.72;;;3.30;99.90;;;;;;4217928;28;20576;-76
2022/01/06 02:39:17;;;;;;;23.60;6.82;;;3.30;99.90;;;;;;4219297;28;20056;-77
2022/01/06 02:41:19;;;;;;;14.95;7.07;;;3.30;99.90;;;;;;4215263;28;20109;-76
2022/01/06 02:43:24;;;;;;;29.00;6.57;;;3.30;99.90;;;;;;4212697;28;20481;-77
2022/01/06 02:45:28;;;;;;;22.27;7.93;;;3.30;99.90;;;;;;4213308;28;20098;-76
2022/01/06 02:47:31;;;;;;;22.58;7.28;;;3.30;99.90;;;;;;4220338;28;20130;-75
2022/01/06 02:49:34;;;;;;;19.88;6.65;;;3.30;99.90;;;;;;4220594;28;20087;-75
2022/01/06 02:51:38;;;;;;;22.98;5.93;;;3.30;99.90;;;;;;4211926;28;20055;-75
2022/01/06 02:53:40;;;;;;;16.85;6.60;;;3.40;99.90;;;;;;4221565;28;20048;-76
2022/01/06 02:55:50;;;;;;;18.00;6.28;;;3.40;99.90;;;;;;4227303;28;20044;-76
2022/01/06 02:58:12;;;;;;;22.00;6.53;;;3.30;99.90;;;;;;4229621;28;20057;-75
2022/01/06 03:00:17;;;;;;;23.73;5.88;;;3.30;99.90;;;;;;4222237;28;20132;-75
2022/01/06 03:02:19;;;;;;;15.85;5.80;;;3.30;99.90;;;;;;4228043;28;20047;-74
2022/01/06 03:04:23;;;;;;;14.52;5.93;;;3.30;99.90;;;;;;4229849;28;20077;-77
2022/01/06 03:06:25;;;;;;;15.25;5.10;;;3.30;99.90;;;;;;4229524;28;20044;-78
2022/01/06 03:08:27;;;;;;;17.83;5.68;;;3.30;99.90;;;;;;4227786;28;20086;-76
2022/01/06 03:10:31;;;;;;;21.23;4.72;;;3.30;99.90;;;;;;4227498;28;20098;-77
2022/01/06 03:12:39;;;;;;;19.52;5.85;;;3.40;99.90;;;;;;4223134;28;20075;-76
2022/01/06 03:14:41;;;;;;;20.67;6.78;;;3.50;99.90;;;;;;4229495;28;20054;-79
2022/01/06 03:16:44;;;;;;;23.40;6.45;;;3.50;99.90;;;;;;4229119;28;20070;-77
2022/01/06 03:18:46;;;;;;;15.30;5.75;;;3.50;99.90;;;;;;4229030;28;20048;-75
2022/01/06 03:20:48;;;;;;;20.98;5.80;;;3.50;99.90;;;;;;4228760;28;20047;-76
2022/01/06 03:22:51;;;;;;;17.55;6.05;;;3.50;99.90;;;;;;4211961;28;20048;-74
2022/01/06 03:24:53;;;;;;;19.15;6.18;;;3.50;99.90;;;;;;4225100;28;20079;-77
2022/01/06 03:26:55;;;;;;;14.32;5.60;;;3.50;99.90;;;;;;4229357;28;20526;-77
2022/01/06 03:28:56;;;;;;;14.90;5.10;;;3.50;99.90;;;;;;4229580;28;20082;-77
2022/01/06 03:30:59;;;;;;;18.38;5.65;;;3.50;99.90;;;;;;4227851;28;20047;-75
2022/01/06 03:33:01;;;;;;;18.83;5.90;;;3.50;99.90;;;;;;4220868;28;20096;-77
2022/01/06 03:35:04;;;;;;;17.60;6.03;;;3.50;99.90;;;;;;4229875;28;20071;-76
2022/01/06 03:37:06;;;;;;;18.65;6.65;;;3.50;99.90;;;;;;4227494;28;20122;-76
2022/01/06 03:39:08;;;;;;;21.85;8.35;;;3.50;99.90;;;;;;4212313;28;20048;-74
2022/01/06 03:41:10;;;;;;;20.33;8.93;;;3.40;99.90;;;;;;4212721;28;20090;-75
2022/01/06 03:43:12;;;;;;;22.10;7.93;;;3.40;99.90;;;;;;4212748;28;20051;-76
2022/01/06 03:45:17;;;;;;;27.05;8.15;;;3.40;99.90;;;;;;4212839;28;20078;-75
2022/01/06 03:47:19;;;;;;;25.52;8.00;;;3.40;99.90;;;;;;4221202;28;20168;-75
2022/01/06 03:49:21;;;;;;;30.35;8.77;;;3.40;99.90;;;;;;4213810;28;20127;-76
2022/01/06 03:51:23;;;;;;;28.23;9.27;;;3.40;99.90;;;;;;4214745;28;20124;-77
2022/01/06 03:53:25;;;;;;;22.98;10.25;;;3.40;99.90;;;;;;4222202;28;20048;-77
2022/01/06 03:55:27;;;;;;;30.35;13.80;;;3.40;99.90;;;;;;4215722;28;20131;-75
2022/01/06 03:57:29;;;;;;;34.50;13.82;;;3.40;99.90;;;;;;4217538;28;20147;-75
2022/01/06 03:59:31;;;;;;;25.00;9.80;;;3.30;99.90;;;;;;4215430;28;20047;-76
2022/01/06 04:01:34;;;;;;;19.90;9.45;;;3.30;99.90;;;;;;4215653;28;20048;-75
2022/01/06 04:03:36;;;;;;;27.25;10.63;;;3.30;99.90;;;;;;4215093;28;20058;-77
2022/01/06 04:05:38;;;;;;;19.88;9.98;;;3.30;99.90;;;;;;4215940;28;20059;-76
2022/01/06 04:07:41;;;;;;;24.40;10.00;;;3.30;99.90;;;;;;4223643;28;20040;-76
2022/01/06 04:09:43;;;;;;;28.38;10.18;;;3.30;99.90;;;;;;4215509;28;20047;-76
2022/01/06 04:11:44;;;;;;;25.02;9.52;;;3.40;99.90;;;;;;4215347;28;20519;-76
2022/01/06 04:13:46;;;;;;;17.95;7.57;;;3.30;99.90;;;;;;4217191;28;20040;-75
2022/01/06 04:15:48;;;;;;;26.77;7.80;;;3.40;99.90;;;;;;4224996;28;20518;-76
2022/01/06 04:17:50;;;;;;;16.27;6.60;;;3.40;99.90;;;;;;4217368;28;20495;-75
2022/01/06 04:19:52;;;;;;;28.52;7.50;;;3.40;99.90;;;;;;4230289;28;20130;-78
2022/01/06 04:21:54;;;;;;;20.27;6.95;;;3.40;99.90;;;;;;4231865;28;20085;-75
2022/01/06 04:23:56;;;;;;;19.55;6.47;;;3.40;99.90;;;;;;4231774;28;20086;-76
2022/01/06 04:25:58;;;;;;;17.38;6.88;;;3.50;99.90;;;;;;4227973;28;20818;-75
2022/01/06 04:28:00;;;;;;;32.63;7.70;;;3.50;99.90;;;;;;4214809;28;20082;-78
2022/01/06 04:30:06;;;;;;;59.10;27.52;;;3.50;99.90;;;;;;4214721;28;20082;-77
2022/01/06 04:32:08;;;;;;;22.10;9.02;;;3.50;99.90;;;;;;4231086;27;20044;-76
2022/01/06 04:34:10;;;;;;;28.58;9.40;;;3.50;99.90;;;;;;4246123;27;20458;-76
2022/01/06 04:36:12;;;;;;;16.85;7.72;;;3.50;99.90;;;;;;4214886;28;20470;-76
2022/01/06 04:38:14;;;;;;;23.58;8.77;;;3.50;99.90;;;;;;4218703;28;20075;-76
2022/01/06 04:40:16;;;;;;;18.10;7.03;;;3.50;99.90;;;;;;4223490;28;20127;-76
2022/01/06 04:42:18;;;;;;;17.90;7.40;;;3.60;99.90;;;;;;4214801;28;20569;-75
2022/01/06 04:44:20;;;;;;;26.83;9.23;;;3.60;99.90;;;;;;4222184;28;20052;-76
2022/01/06 04:46:22;;;;;;;28.08;8.55;;;3.60;99.90;;;;;;4222407;28;20044;-78
2022/01/06 04:48:24;;;;;;;27.52;8.70;;;3.60;99.90;;;;;;4214633;28;20087;-77
2022/01/06 04:50:26;;;;;;;29.13;9.43;;;3.60;99.90;;;;;;4214503;28;20044;-78
2022/01/06 04:52:28;;;;;;;35.63;12.90;;;3.60;99.90;;;;;;4224043;28;20071;-88
2022/01/06 04:54:32;;;;;;;47.05;15.88;;;3.70;99.90;;;;;;4218745;28;20062;-77
2022/01/06 04:56:38;;;;;;;41.23;15.67;;;3.70;99.90;;;;;;4232252;28;20051;-76
2022/01/06 04:58:40;;;;;;;20.05;7.60;;;3.70;99.90;;;;;;4228920;28;20047;-77
2022/01/06 05:00:42;;;;;;;15.27;5.07;;;3.80;99.90;;;;;;4231351;28;20502;-80
2022/01/06 05:02:44;;;;;;;18.55;4.40;;;3.80;99.90;;;;;;4232818;27;20062;-77
2022/01/06 05:04:46;;;;;;;15.07;4.07;;;3.90;99.90;;;;;;4231572;28;20056;-86
2022/01/06 05:06:50;;;;;;;17.85;3.08;;;4.00;99.90;;;;;;4223354;28;20067;-77
2022/01/06 05:08:53;;;;;;;11.63;3.72;;;4.00;99.90;;;;;;4215816;28;20071;-83
2022/01/06 05:10:55;;;;;;;17.63;3.72;;;4.10;99.90;;;;;;4215192;28;20044;-75
2022/01/06 05:12:57;;;;;;;10.80;3.67;;;4.10;99.90;;;;;;4220248;28;20074;-76
2022/01/06 05:14:59;;;;;;;11.52;3.22;;;4.20;99.90;;;;;;4230050;28;20646;-77
2022/01/06 05:17:02;;;;;;;16.83;3.28;;;4.20;99.90;;;;;;4213927;28;20683;-78
2022/01/06 05:19:04;;;;;;;15.32;4.00;;;4.20;99.90;;;;;;4214296;28;20068;-77
2022/01/06 05:21:06;;;;;;;10.52;3.22;;;4.20;99.90;;;;;;4214180;28;20127;-76
2022/01/06 05:23:10;;;;;;;11.18;3.08;;;4.30;99.90;;;;;;4214436;28;20071;-76
2022/01/06 05:25:13;;;;;;;13.05;2.97;;;4.20;99.90;;;;;;4217825;28;20044;-76
2022/01/06 05:27:15;;;;;;;15.77;3.20;;;4.20;99.90;;;;;;4213687;28;20086;-78
2022/01/06 05:29:17;;;;;;;12.57;3.03;;;4.10;99.90;;;;;;4214319;28;20082;-77
2022/01/06 05:31:19;;;;;;;13.88;3.50;;;4.10;99.90;;;;;;4213862;28;20048;-77
2022/01/06 05:33:21;;;;;;;12.77;3.40;;;4.10;99.90;;;;;;4216333;28;20054;-77
2022/01/06 05:35:22;;;;;;;11.48;2.95;;;4.10;99.90;;;;;;4218765;28;20702;-77
2022/01/06 05:37:24;;;;;;;12.10;2.90;;;4.10;99.90;;;;;;4213761;28;20086;-75
2022/01/06 05:39:26;;;;;;;13.48;2.53;;;4.00;99.90;;;;;;4214209;28;20134;-76
2022/01/06 05:41:28;;;;;;;10.13;2.80;;;4.10;99.90;;;;;;4219387;28;20086;-75
2022/01/06 05:43:30;;;;;;;7.15;2.95;;;4.10;99.90;;;;;;4221551;28;20040;-76
2022/01/06 05:45:32;;;;;;;12.60;2.42;;;4.10;99.90;;;;;;4231300;28;20776;-76
2022/01/06 05:47:34;;;;;;;9.00;2.72;;;4.10;99.90;;;;;;4230421;28;20511;-77
2022/01/06 05:49:36;;;;;;;13.48;3.50;;;4.10;99.90;;;;;;4224900;28;20464;-77
2022/01/06 05:51:38;;;;;;;15.95;3.03;;;4.20;99.90;;;;;;4220021;27;20083;-80
2022/01/06 05:53:41;;;;;;;17.35;4.43;;;4.20;99.90;;;;;;4217008;28;20592;-77
2022/01/06 05:55:43;;;;;;;15.68;3.83;;;4.20;99.90;;;;;;4219617;28;20044;-77
2022/01/06 05:57:44;;;;;;;14.60;4.25;;;4.20;99.90;;;;;;4230210;28;20054;-76
2022/01/06 05:59:46;;;;;;;9.70;4.03;;;4.20;99.90;;;;;;4230671;28;20055;-77
2022/01/06 06:01:48;;;;;;;17.02;6.47;;;4.30;99.90;;;;;;4228296;28;20573;-77
2022/01/06 06:03:52;;;;;;;14.27;5.65;;;4.30;99.90;;;;;;4213358;28;20063;-77
2022/01/06 06:05:55;;;;;;;20.13;5.40;;;4.30;99.90;;;;;;4214935;28;20076;-78
2022/01/06 06:07:56;;;;;;;16.92;5.47;;;4.30;99.90;;;;;;4225557;28;20040;-77
2022/01/06 06:09:58;;;;;;;17.13;5.82;;;4.20;99.90;;;;;;4230161;28;20745;-78
2022/01/06 06:12:00;;;;;;;13.85;5.93;;;4.20;99.90;;;;;;4230532;28;20608;-77
2022/01/06 06:14:02;;;;;;;16.92;5.57;;;4.20;99.90;;;;;;4221721;28;20064;-77
2022/01/06 06:16:05;;;;;;;12.00;5.28;;;4.20;99.90;;;;;;4229628;28;20071;-76
2022/01/06 06:18:11;;;;;;;18.45;5.38;;;4.10;99.90;;;;;;4227946;28;20048;-77
2022/01/06 06:20:14;;;;;;;11.43;4.93;;;4.10;99.90;;;;;;4228986;28;20074;-76
2022/01/06 06:22:16;;;;;;;15.70;4.97;;;4.10;99.90;;;;;;4226800;28;20697;-77
2022/01/06 06:24:20;;;;;;;16.48;5.47;;;4.00;99.90;;;;;;4217317;28;20098;-76
2022/01/06 06:26:22;;;;;;;14.18;4.78;;;4.00;99.90;;;;;;4212994;28;20044;-75
2022/01/06 06:28:24;;;;;;;20.80;3.25;;;4.00;99.90;;;;;;4213356;28;20514;-75
2022/01/06 06:30:26;;;;;;;12.40;3.20;;;4.10;99.90;;;;;;4214947;28;20079;-76
2022/01/06 06:32:30;;;;;;;16.27;3.20;;;4.10;99.90;;;;;;4213955;28;20048;-76
2022/01/06 06:34:32;;;;;;;14.02;3.30;;;4.10;99.90;;;;;;4213261;28;20765;-76
2022/01/06 06:36:35;;;;;;;11.18;3.05;;;4.20;99.90;;;;;;4212948;28;20080;-78
2022/01/06 06:38:36;;;;;;;13.00;2.70;;;4.20;99.90;;;;;;4215714;28;20067;-76
2022/01/06 06:40:38;;;;;;;15.50;3.22;;;4.30;99.90;;;;;;4222061;28;20083;-77
2022/01/06 06:42:40;;;;;;;15.38;2.67;;;4.40;99.90;;;;;;4230042;28;20075;-77
2022/01/06 06:44:42;;;;;;;9.15;2.53;;;4.50;99.90;;;;;;4213329;28;20071;-76
2022/01/06 06:46:45;;;;;;;12.00;2.90;;;4.50;99.90;;;;;;4215147;28;20073;-76
2022/01/06 06:48:47;;;;;;;21.60;3.80;;;4.60;99.90;;;;;;4225906;28;20044;-78
2022/01/06 06:50:49;;;;;;;13.05;3.33;;;4.60;99.90;;;;;;4212681;28;20051;-77
2022/01/06 06:52:51;;;;;;;12.80;3.03;;;4.60;99.90;;;;;;4212815;28;20072;-76
2022/01/06 06:54:56;;;;;;;12.82;2.97;;;4.70;99.90;;;;;;4212858;28;20075;-76
2022/01/06 06:56:58;;;;;;;9.48;2.85;;;4.70;99.90;;;;;;4223368;28;20046;-77
2022/01/06 06:58:59;;;;;;;11.02;2.38;;;4.70;99.90;;;;;;4214041;28;20480;-77
2022/01/06 07:01:02;;;;;;;13.52;2.80;;;4.70;99.90;;;;;;4212682;28;20074;-77
2022/01/06 07:03:04;;;;;;;8.63;2.90;;;4.70;99.90;;;;;;4212665;28;20040;-77
2022/01/06 07:05:07;;;;;;;19.25;4.25;;;4.70;99.90;;;;;;4217840;28;20054;-78
2022/01/06 07:07:09;;;;;;;9.43;3.08;;;4.70;99.90;;;;;;4222076;28;20531;-76
2022/01/06 07:09:11;;;;;;;6.22;2.72;;;4.70;99.90;;;;;;4212903;28;20076;-78
2022/01/06 07:11:13;;;;;;;13.18;3.15;;;4.70;99.90;;;;;;4213232;28;20532;-76
2022/01/06 07:13:16;;;;;;;9.43;2.95;;;4.70;99.90;;;;;;4212885;28;20048;-77
2022/01/06 07:15:19;;;;;;;9.27;3.35;;;4.70;99.90;;;;;;4219609;28;20051;-76
2022/01/06 07:17:20;;;;;;;13.18;3.03;;;4.70;99.90;;;;;;4212590;28;20071;-77
2022/01/06 07:19:22;;;;;;;17.30;3.70;;;4.70;99.90;;;;;;4212812;28;20052;-78
2022/01/06 07:21:24;;;;;;;19.55;4.03;;;4.70;99.90;;;;;;4214996;28;20051;-77
2022/01/06 07:23:26;;;;;;;15.98;3.65;;;4.70;99.90;;;;;;4220405;28;20112;-76
2022/01/06 07:25:29;;;;;;;13.63;3.97;;;4.70;99.90;;;;;;4229870;28;20127;-77
2022/01/06 07:27:30;;;;;;;11.75;3.38;;;4.70;99.90;;;;;;4228613;28;20071;-77
2022/01/06 07:29:32;;;;;;;13.57;3.72;;;4.60;99.90;;;;;;4224088;28;20451;-77
2022/01/06 07:31:35;;;;;;;10.70;4.25;;;4.60;99.90;;;;;;4232954;28;20043;-77
2022/01/06 07:33:37;;;;;;;13.15;3.88;;;4.60;99.90;;;;;;4228933;28;20574;-77
2022/01/06 07:35:39;;;;;;;13.98;4.35;;;4.60;99.90;;;;;;4223759;28;20109;-77
2022/01/06 07:37:41;;;;;;;12.27;3.90;;;4.60;99.90;;;;;;4231281;28;20130;-78
2022/01/06 07:39:47;;;;;;;14.88;4.78;;;4.60;99.90;;;;;;4225699;28;20482;-76
2022/01/06 07:41:49;;;;;;;16.98;4.65;;;4.60;99.90;;;;;;4232735;28;20062;-75
2022/01/06 07:43:51;;;;;;;14.70;4.38;;;4.60;99.90;;;;;;4230751;28;20082;-77
2022/01/06 07:45:53;;;;;;;17.27;4.78;;;4.60;99.90;;;;;;4224346;28;20048;-77
2022/01/06 07:48:00;;;;;;;16.73;5.10;;;4.50;99.90;;;;;;4214607;28;20056;-77
2022/01/06 07:50:03;;;;;;;22.13;5.50;;;4.50;99.90;;;;;;4218977;28;20048;-77
2022/01/06 07:52:05;;;;;;;26.52;5.80;;;4.50;99.90;;;;;;4232193;28;20144;-80
2022/01/06 07:54:07;;;;;;;16.98;5.55;;;4.50;99.90;;;;;;4232673;28;20082;-77
2022/01/06 07:56:09;;;;;;;13.48;4.72;;;4.50;99.90;;;;;;4229058;28;20048;-77
2022/01/06 07:58:11;;;;;;;14.90;4.50;;;4.40;99.90;;;;;;4225691;28;20082;-77
2022/01/06 08:00:14;;;;;;;13.23;4.63;;;4.40;99.90;;;;;;4232152;28;20050;-77
2022/01/06 08:02:16;;;;;;;16.17;4.93;;;4.50;99.90;;;;;;4225296;28;20074;-77
2022/01/06 08:04:18;;;;;;;17.20;4.47;;;4.50;99.90;;;;;;4231867;28;20055;-77
2022/01/06 08:06:20;;;;;;;15.15;4.20;;;4.40;99.90;;;;;;4231881;28;20063;-77
2022/01/06 08:08:22;;;;;;;14.48;4.35;;;4.40;99.90;;;;;;4227798;28;20105;-76
2022/01/06 08:10:24;;;;;;;16.40;4.95;;;4.40;99.90;;;;;;4224291;28;20738;-78
2022/01/06 08:12:26;;;;;;;15.02;4.18;;;4.40;99.90;;;;;;4222799;28;20043;-76
2022/01/06 08:14:29;;;;;;;12.57;4.63;;;4.40;99.90;;;;;;4232077;28;20051;-77
2022/01/06 08:16:31;;;;;;;12.07;3.95;;;4.40;99.90;;;;;;4233225;28;20039;-77
2022/01/06 08:18:33;;;;;;;15.07;4.97;;;4.40;99.90;;;;;;4232429;28;20071;-76
2022/01/06 08:20:36;;;;;;;19.08;4.47;;;4.40;99.90;;;;;;4229693;28;20048;-75
2022/01/06 08:22:38;;;;;;;16.20;4.10;;;4.50;99.90;;;;;;4227689;28;20055;-76
2022/01/06 08:24:40;;;;;;;19.25;5.20;;;4.50;99.90;;;;;;4215269;28;20040;-76
2022/01/06 08:26:42;;;;;;;13.93;4.13;;;4.50;99.90;;;;;;4215657;28;20048;-76
2022/01/06 08:28:46;;;;;;;14.00;4.47;;;4.50;99.90;;;;;;4215827;28;20121;-77
2022/01/06 08:30:48;;;;;;;16.42;5.00;;;4.50;99.90;;;;;;4215106;28;20136;-77
2022/01/06 08:32:50;;;;;;;16.10;4.93;;;4.50;99.90;;;;;;4224110;28;20075;-76
2022/01/06 08:34:52;;;;;;;18.15;4.88;;;4.50;99.90;;;;;;4229655;28;20054;-77
2022/01/06 08:36:54;;;;;;;16.58;4.60;;;4.50;99.90;;;;;;4227889;28;20071;-76
2022/01/06 08:38:56;;;;;;;14.18;4.57;;;4.50;99.90;;;;;;4214616;28;20059;-77
2022/01/06 08:40:58;;;;;;;12.25;4.35;;;4.60;99.90;;;;;;4216033;28;20063;-76
2022/01/06 08:43:00;;;;;;;10.75;4.22;;;4.60;99.90;;;;;;4227299;28;20075;-77
2022/01/06 08:45:03;;;;;;;12.90;4.55;;;4.60;99.90;;;;;;4230894;28;20090;-77
2022/01/06 08:47:06;;;;;;;17.50;4.85;;;4.70;99.90;;;;;;4231721;28;20102;-77
2022/01/06 08:49:11;;;;;;;12.80;4.35;;;4.70;99.90;;;;;;4221027;28;20515;-77
2022/01/06 08:51:13;;;;;;;14.45;4.45;;;4.70;99.90;;;;;;4226755;28;20050;-77
2022/01/06 08:53:16;;;;;;;12.45;4.57;;;4.70;99.90;;;;;;4216695;28;20091;-76
2022/01/06 08:55:18;;;;;;;11.88;4.47;;;4.80;99.90;;;;;;4216440;28;20046;-77
2022/01/06 08:57:21;;;;;;;19.73;4.32;;;4.80;99.90;;;;;;4220324;28;20072;-77
2022/01/06 08:59:23;;;;;;;15.77;5.53;;;4.80;99.90;;;;;;4227290;28;20130;-76
2022/01/06 09:01:25;;;;;;;17.90;4.88;;;4.80;99.90;;;;;;4229082;28;20458;-76
2022/01/06 09:03:27;;;;;;;16.23;5.40;;;4.80;99.90;;;;;;4231505;28;20090;-78
2022/01/06 09:05:29;;;;;;;13.85;5.30;;;4.80;99.90;;;;;;4232356;28;20054;-77
2022/01/06 09:07:33;;;;;;;14.80;4.50;;;4.80;99.90;;;;;;4230905;28;20047;-77
2022/01/06 09:09:39;;;;;;;13.50;5.30;;;4.80;99.90;;;;;;4230511;28;20047;-76
2022/01/06 09:11:42;;;;;;;14.18;4.97;;;4.80;99.90;;;;;;4217627;28;20127;-76
2022/01/06 09:13:44;;;;;;;12.70;5.00;;;4.80;99.90;;;;;;4222755;28;20048;-77
2022/01/06 09:15:45;;;;;;;11.25;4.93;;;4.80;99.90;;;;;;4231254;28;20506;-75
2022/01/06 09:17:47;;;;;;;13.80;5.25;;;4.80;99.90;;;;;;4231121;28;20082;-75
2022/01/06 09:19:49;;;;;;;17.48;5.20;;;4.80;99.90;;;;;;4230182;28;20047;-77
2022/01/06 09:21:51;;;;;;;12.00;4.82;;;4.80;99.90;;;;;;4222834;28;20117;-76
2022/01/06 09:23:54;;;;;;;31.13;5.18;;;4.90;99.90;;;;;;4217277;28;20168;-77
2022/01/06 09:25:56;;;;;;;10.90;4.82;;;4.90;99.90;;;;;;4222598;28;20058;-76
2022/01/06 09:27:58;;;;;;;17.17;4.38;;;5.00;99.90;;;;;;4228408;28;20048;-77
2022/01/06 09:30:00;;;;;;;13.63;4.13;;;5.10;99.90;;;;;;4231895;28;20491;-77
2022/01/06 09:32:02;;;;;;;13.70;4.65;;;5.10;99.90;;;;;;4230879;28;20081;-75
2022/01/06 09:34:04;;;;;;;12.82;4.28;;;5.10;99.90;;;;;;4227712;28;20047;-75
2022/01/06 09:36:06;;;;;;;9.77;4.72;;;5.10;99.90;;;;;;4227843;28;20052;-77
2022/01/06 09:38:09;;;;;;;13.15;4.93;;;5.20;99.90;;;;;;4231095;28;20168;-77
2022/01/06 09:40:14;;;;;;;15.10;5.20;;;5.20;99.90;;;;;;4229688;28;20122;-75
2022/01/06 09:42:17;;;;;;;11.52;4.45;;;5.30;99.90;;;;;;4220242;28;20080;-78
2022/01/06 09:44:19;;;;;;;12.95;4.82;;;5.40;99.90;;;;;;4214115;28;20055;-75
2022/01/06 09:46:36;;;;;;;16.45;5.30;;;5.50;99.90;;;;;;4212992;28;20522;-76
2022/01/06 09:48:40;;;;;;;19.70;5.53;;;5.50;99.90;;;;;;4224044;27;20105;-78
2022/01/06 09:50:43;;;;;;;14.00;5.90;;;5.50;99.90;;;;;;4213853;28;20040;-77
2022/01/06 09:52:47;;;;;;;20.52;5.70;;;5.50;99.90;;;;;;4213418;28;20127;-78
2022/01/06 09:54:49;;;;;;;10.98;4.63;;;5.60;99.90;;;;;;4213692;28;20087;-78
2022/01/06 09:56:51;;;;;;;14.00;4.45;;;5.70;99.90;;;;;;4224300;28;20079;-77
2022/01/06 09:58:54;;;;;;;10.50;5.18;;;5.70;99.90;;;;;;4225647;28;20078;-77
2022/01/06 10:00:56;;;;;;;15.65;5.13;;;5.90;99.90;;;;;;4213167;28;20044;-77
2022/01/06 10:03:05;;;;;;;12.20;4.57;;;5.90;99.90;;;;;;4214741;28;20051;-79
2022/01/06 10:05:07;;;;;;;11.65;3.40;;;5.90;99.90;;;;;;4217272;28;20055;-77
2022/01/06 10:07:10;;;;;;;7.90;2.17;;;5.90;99.90;;;;;;4229307;28;20052;-77
2022/01/06 10:09:12;;;;;;;17.02;2.92;;;6.10;99.90;;;;;;4230440;28;20054;-78
2022/01/06 10:11:18;;;;;;;14.70;3.63;;;6.20;99.90;;;;;;4230353;28;20052;-77
2022/01/06 10:13:23;;;;;;;11.10;4.35;;;6.30;99.90;;;;;;4221535;28;20079;-76
2022/01/06 10:15:26;;;;;;;9.70;3.95;;;6.20;99.90;;;;;;4217728;28;20107;-78
2022/01/06 10:17:36;;;;;;;13.10;4.55;;;6.10;99.90;;;;;;4212924;28;20132;-77
2022/01/06 10:19:43;;;;;;;11.95;4.57;;;6.00;99.90;;;;;;4214717;28;20044;-77
2022/01/06 10:21:56;;;;;;;13.48;4.18;;;6.00;99.90;;;;;;4218478;28;20056;-78
2022/01/06 10:24:04;;;;;;;16.42;4.68;;;6.00;99.90;;;;;;4217383;28;20079;-78
2022/01/06 10:26:13;;;;;;;15.20;3.30;;;6.00;99.90;;;;;;4212793;28;20209;-77
2022/01/06 10:28:21;;;;;;;13.75;3.90;;;6.00;99.90;;;;;;4213038;28;20040;-75
2022/01/06 10:30:26;;;;;;;14.98;3.40;;;6.00;99.90;;;;;;4236237;27;20071;-77
2022/01/06 10:32:32;;;;;;;11.27;2.90;;;6.10;99.90;;;;;;4217890;27;20067;-77
2022/01/06 10:34:36;;;;;;;11.55;3.60;;;6.10;99.90;;;;;;4241405;27;20066;-77
2022/01/06 10:36:39;;;;;;;13.50;3.53;;;6.20;99.90;;;;;;4229910;28;20052;-77
2022/01/06 10:38:41;;;;;;;7.38;2.70;;;6.20;99.90;;;;;;4230269;28;20082;-78
2022/01/06 10:40:43;;;;;;;12.68;4.13;;;6.20;99.90;;;;;;4227146;28;20142;-76
2022/01/06 10:43:06;;;;;;;10.32;3.55;;;6.30;99.90;;;;;;4221953;28;20134;-76
2022/01/06 10:45:14;;;;;;;18.25;5.45;;;6.40;99.90;;;;;;4214111;28;20071;-76